sensor_id;sensor_type;location;lat;lon;timestamp;temperature;humidity
7014;DHT22;3547;50.774;12.918;2023-12-14T00:00:32;3.50;16.70
7014;DHT22;3547;50.774;12.918;2023-12-14T00:02:58;3.30;12.10
7014;DHT22;3547;50.774;12.918;2023-12-14T00:05:24;3.30;13.40
7014;DHT22;3547;50.774;12.918;2023-12-14T00:07:51;3.30;13.20
7014;DHT22;3547;50.774;12.918;2023-12-14T00:10:17;3.30;13.00
7014;DHT22;3547;50.774;12.918;2023-12-14T00:12:46;3.20;14.00
7014;DHT22;3547;50.774;12.918;2023-12-14T00:15:12;3.20;13.30
7014;DHT22;3547;50.774;12.918;2023-12-14T00:17:38;3.20;14.20
7014;DHT22;3547;50.774;12.918;2023-12-14T00:20:05;3.20;15.20
7014;DHT22;3547;50.774;12.918;2023-12-14T00:22:32;3.20;19.00
7014;DHT22;3547;50.774;12.918;2023-12-14T00:24:58;3.20;19.80
7014;DHT22;3547;50.774;12.918;2023-12-14T00:27:24;3.30;19.60
7014;DHT22;3547;50.774;12.918;2023-12-14T00:29:50;3.20;18.20
7014;DHT22;3547;50.774;12.918;2023-12-14T00:32:16;3.20;17.80
7014;DHT22;3547;50.774;12.918;2023-12-14T00:34:42;3.30;19.50
7014;DHT22;3547;50.774;12.918;2023-12-14T00:37:08;3.30;20.20
7014;DHT22;3547;50.774;12.918;2023-12-14T00:39:35;3.20;20.20
7014;DHT22;3547;50.774;12.918;2023-12-14T00:42:01;3.30;23.10
7014;DHT22;3547;50.774;12.918;2023-12-14T00:44:27;3.30;23.80
7014;DHT22;3547;50.774;12.918;2023-12-14T00:46:53;3.40;23.80
7014;DHT22;3547;50.774;12.918;2023-12-14T00:49:19;3.50;23.10
7014;DHT22;3547;50.774;12.918;2023-12-14T00:51:45;3.60;23.90
7014;DHT22;3547;50.774;12.918;2023-12-14T00:54:11;3.70;23.40
7014;DHT22;3547;50.774;12.918;2023-12-14T00:56:38;3.70;22.50
7014;DHT22;3547;50.774;12.918;2023-12-14T00:59:04;3.70;20.00
7014;DHT22;3547;50.774;12.918;2023-12-14T01:01:30;3.70;18.10
7014;DHT22;3547;50.774;12.918;2023-12-14T01:03:56;3.60;19.30
7014;DHT22;3547;50.774;12.918;2023-12-14T01:06:22;3.50;21.40
7014;DHT22;3547;50.774;12.918;2023-12-14T01:08:49;3.60;25.00
7014;DHT22;3547;50.774;12.918;2023-12-14T01:11:15;3.70;23.60
7014;DHT22;3547;50.774;12.918;2023-12-14T01:13:41;3.70;23.20
7014;DHT22;3547;50.774;12.918;2023-12-14T01:16:08;3.80;21.70
7014;DHT22;3547;50.774;12.918;2023-12-14T01:18:34;3.70;23.00
7014;DHT22;3547;50.774;12.918;2023-12-14T01:21:00;3.80;23.10
7014;DHT22;3547;50.774;12.918;2023-12-14T01:23:26;3.80;21.00
7014;DHT22;3547;50.774;12.918;2023-12-14T01:25:52;3.80;21.30
7014;DHT22;3547;50.774;12.918;2023-12-14T01:28:18;3.80;20.70
7014;DHT22;3547;50.774;12.918;2023-12-14T01:30:44;3.80;21.70
7014;DHT22;3547;50.774;12.918;2023-12-14T01:33:11;3.90;21.60
7014;DHT22;3547;50.774;12.918;2023-12-14T01:35:37;3.90;22.30
7014;DHT22;3547;50.774;12.918;2023-12-14T01:38:03;3.90;22.30
7014;DHT22;3547;50.774;12.918;2023-12-14T01:40:29;3.90;22.20
7014;DHT22;3547;50.774;12.918;2023-12-14T01:43:09;3.90;21.70
7014;DHT22;3547;50.774;12.918;2023-12-14T01:45:38;3.90;22.70
7014;DHT22;3547;50.774;12.918;2023-12-14T01:48:04;4.00;21.30
7014;DHT22;3547;50.774;12.918;2023-12-14T01:50:31;3.90;20.50
7014;DHT22;3547;50.774;12.918;2023-12-14T01:52:57;3.90;21.00
7014;DHT22;3547;50.774;12.918;2023-12-14T01:55:23;4.00;20.60
7014;DHT22;3547;50.774;12.918;2023-12-14T02:01:25;4.10;22.80
7014;DHT22;3547;50.774;12.918;2023-12-14T02:03:54;4.10;20.60
7014;DHT22;3547;50.774;12.918;2023-12-14T02:06:20;4.10;20.40
7014;DHT22;3547;50.774;12.918;2023-12-14T02:08:50;4.00;22.40
7014;DHT22;3547;50.774;12.918;2023-12-14T02:11:18;4.00;23.20
7014;DHT22;3547;50.774;12.918;2023-12-14T02:13:44;4.00;25.20
7014;DHT22;3547;50.774;12.918;2023-12-14T02:16:10;4.10;25.80
7014;DHT22;3547;50.774;12.918;2023-12-14T02:18:37;4.10;26.80
7014;DHT22;3547;50.774;12.918;2023-12-14T02:21:03;4.20;26.50
7014;DHT22;3547;50.774;12.918;2023-12-14T02:23:30;4.30;25.20
7014;DHT22;3547;50.774;12.918;2023-12-14T02:25:59;4.40;24.60
7014;DHT22;3547;50.774;12.918;2023-12-14T02:28:39;4.40;24.60
7014;DHT22;3547;50.774;12.918;2023-12-14T02:37:19;4.40;23.70
7014;DHT22;3547;50.774;12.918;2023-12-14T02:39:45;4.40;23.20
7014;DHT22;3547;50.774;12.918;2023-12-14T02:42:13;4.50;25.20
7014;DHT22;3547;50.774;12.918;2023-12-14T02:44:39;4.50;25.40
7014;DHT22;3547;50.774;12.918;2023-12-14T02:47:06;4.50;26.80
7014;DHT22;3547;50.774;12.918;2023-12-14T02:49:32;4.60;26.50
7014;DHT22;3547;50.774;12.918;2023-12-14T02:51:59;4.60;35.00
7014;DHT22;3547;50.774;12.918;2023-12-14T02:54:25;4.60;42.80
7014;DHT22;3547;50.774;12.918;2023-12-14T02:56:52;4.70;50.80
7014;DHT22;3547;50.774;12.918;2023-12-14T02:59:25;4.70;54.30
7014;DHT22;3547;50.774;12.918;2023-12-14T03:01:52;4.70;67.80
7014;DHT22;3547;50.774;12.918;2023-12-14T03:04:20;4.70;80.00
7014;DHT22;3547;50.774;12.918;2023-12-14T03:06:47;4.70;92.20
7014;DHT22;3547;50.774;12.918;2023-12-14T03:09:16;4.70;94.80
7014;DHT22;3547;50.774;12.918;2023-12-14T03:11:50;4.80;99.90
7014;DHT22;3547;50.774;12.918;2023-12-14T03:14:44;4.80;99.90
7014;DHT22;3547;50.774;12.918;2023-12-14T03:17:15;4.80;99.90
7014;DHT22;3547;50.774;12.918;2023-12-14T03:19:42;4.80;99.90
7014;DHT22;3547;50.774;12.918;2023-12-14T03:22:09;4.80;99.90
7014;DHT22;3547;50.774;12.918;2023-12-14T03:24:35;4.80;99.90
7014;DHT22;3547;50.774;12.918;2023-12-14T03:27:03;4.80;99.90
7014;DHT22;3547;50.774;12.918;2023-12-14T03:29:29;4.90;99.90
7014;DHT22;3547;50.774;12.918;2023-12-14T03:31:56;4.90;99.90
7014;DHT22;3547;50.774;12.918;2023-12-14T03:34:25;4.90;99.90
7014;DHT22;3547;50.774;12.918;2023-12-14T03:36:51;4.90;99.90
7014;DHT22;3547;50.774;12.918;2023-12-14T03:39:17;4.90;99.90
7014;DHT22;3547;50.774;12.918;2023-12-14T03:41:44;4.90;99.90
7014;DHT22;3547;50.774;12.918;2023-12-14T03:44:10;4.90;99.90
7014;DHT22;3547;50.774;12.918;2023-12-14T03:46:37;5.00;99.90
7014;DHT22;3547;50.774;12.918;2023-12-14T03:49:03;5.00;99.90
7014;DHT22;3547;50.774;12.918;2023-12-14T03:51:30;5.10;99.90
7014;DHT22;3547;50.774;12.918;2023-12-14T03:53:56;5.10;99.90
7014;DHT22;3547;50.774;12.918;2023-12-14T03:56:23;5.10;99.90
7014;DHT22;3547;50.774;12.918;2023-12-14T03:58:54;5.10;99.90
7014;DHT22;3547;50.774;12.918;2023-12-14T04:04:16;5.20;99.90
7014;DHT22;3547;50.774;12.918;2023-12-14T04:06:45;5.20;99.90
7014;DHT22;3547;50.774;12.918;2023-12-14T04:09:12;5.20;1.00
7014;DHT22;3547;50.774;12.918;2023-12-14T04:11:38;5.30;99.90
7014;DHT22;3547;50.774;12.918;2023-12-14T04:14:04;5.30;99.90
7014;DHT22;3547;50.774;12.918;2023-12-14T04:16:31;5.30;99.90
7014;DHT22;3547;50.774;12.918;2023-12-14T04:18:57;5.30;99.90
7014;DHT22;3547;50.774;12.918;2023-12-14T04:21:24;5.20;99.90
7014;DHT22;3547;50.774;12.918;2023-12-14T04:23:50;5.40;99.90
7014;DHT22;3547;50.774;12.918;2023-12-14T04:26:17;5.40;99.90
7014;DHT22;3547;50.774;12.918;2023-12-14T04:28:43;5.40;99.90
7014;DHT22;3547;50.774;12.918;2023-12-14T04:31:12;5.40;99.90
7014;DHT22;3547;50.774;12.918;2023-12-14T04:33:38;5.40;99.90
7014;DHT22;3547;50.774;12.918;2023-12-14T04:36:04;5.30;99.90
7014;DHT22;3547;50.774;12.918;2023-12-14T04:38:31;5.30;99.90
7014;DHT22;3547;50.774;12.918;2023-12-14T04:40:57;5.40;99.90
7014;DHT22;3547;50.774;12.918;2023-12-14T04:43:23;5.40;99.90
7014;DHT22;3547;50.774;12.918;2023-12-14T04:45:49;5.40;99.90
7014;DHT22;3547;50.774;12.918;2023-12-14T04:48:19;5.40;99.90
7014;DHT22;3547;50.774;12.918;2023-12-14T04:50:45;5.40;99.90
7014;DHT22;3547;50.774;12.918;2023-12-14T04:53:12;5.40;99.90
7014;DHT22;3547;50.774;12.918;2023-12-14T04:55:38;5.50;99.90
7014;DHT22;3547;50.774;12.918;2023-12-14T04:58:04;5.50;99.90
7014;DHT22;3547;50.774;12.918;2023-12-14T05:07:21;5.50;99.90
7014;DHT22;3547;50.774;12.918;2023-12-14T05:09:49;5.50;99.90
7014;DHT22;3547;50.774;12.918;2023-12-14T05:12:22;5.60;99.90
7014;DHT22;3547;50.774;12.918;2023-12-14T05:14:54;5.50;99.90
7014;DHT22;3547;50.774;12.918;2023-12-14T05:17:23;5.60;99.90
7014;DHT22;3547;50.774;12.918;2023-12-14T07:38:32;5.40;99.90
7014;DHT22;3547;50.774;12.918;2023-12-14T07:40:58;5.40;99.90
7014;DHT22;3547;50.774;12.918;2023-12-14T07:43:25;5.20;99.90
7014;DHT22;3547;50.774;12.918;2023-12-14T07:45:57;5.30;99.90
7014;DHT22;3547;50.774;12.918;2023-12-14T08:45:08;4.80;99.90
7014;DHT22;3547;50.774;12.918;2023-12-14T08:47:37;4.90;99.90
7014;DHT22;3547;50.774;12.918;2023-12-14T08:50:04;5.00;99.90
7014;DHT22;3547;50.774;12.918;2023-12-14T09:59:13;4.40;99.90
7014;DHT22;3547;50.774;12.918;2023-12-14T11:19:34;4.00;99.90
7014;DHT22;3547;50.774;12.918;2023-12-14T14:19:42;2.60;94.70
7014;DHT22;3547;50.774;12.918;2023-12-14T14:24:45;2.60;99.90
7014;DHT22;3547;50.774;12.918;2023-12-14T14:27:14;2.60;99.90
7014;DHT22;3547;50.774;12.918;2023-12-14T14:29:43;2.60;99.90
7014;DHT22;3547;50.774;12.918;2023-12-14T14:32:37;2.70;99.90
7014;DHT22;3547;50.774;12.918;2023-12-14T14:35:05;2.60;99.90
7014;DHT22;3547;50.774;12.918;2023-12-14T14:37:32;2.60;99.90
7014;DHT22;3547;50.774;12.918;2023-12-14T14:39:59;2.50;99.90
7014;DHT22;3547;50.774;12.918;2023-12-14T14:42:25;2.50;99.90
7014;DHT22;3547;50.774;12.918;2023-12-14T14:44:52;2.50;99.90
7014;DHT22;3547;50.774;12.918;2023-12-14T14:47:18;2.50;99.90
7014;DHT22;3547;50.774;12.918;2023-12-14T14:49:44;2.50;99.90
7014;DHT22;3547;50.774;12.918;2023-12-14T14:52:10;2.50;99.90
7014;DHT22;3547;50.774;12.918;2023-12-14T14:54:37;2.60;99.90
7014;DHT22;3547;50.774;12.918;2023-12-14T14:57:05;2.70;99.90
7014;DHT22;3547;50.774;12.918;2023-12-14T14:59:31;2.60;99.90
7014;DHT22;3547;50.774;12.918;2023-12-14T15:05:20;2.70;99.90
7014;DHT22;3547;50.774;12.918;2023-12-14T15:07:46;2.70;99.90
7014;DHT22;3547;50.774;12.918;2023-12-14T15:10:15;2.70;99.90
7014;DHT22;3547;50.774;12.918;2023-12-14T15:12:42;2.80;99.90
7014;DHT22;3547;50.774;12.918;2023-12-14T15:15:08;2.80;99.90
7014;DHT22;3547;50.774;12.918;2023-12-14T15:17:35;2.70;99.90
7014;DHT22;3547;50.774;12.918;2023-12-14T16:33:01;2.50;98.50
7014;DHT22;3547;50.774;12.918;2023-12-14T16:35:34;2.60;99.50
7014;DHT22;3547;50.774;12.918;2023-12-14T18:45:39;2.10;99.90
7014;DHT22;3547;50.774;12.918;2023-12-14T18:48:16;2.10;99.90
7014;DHT22;3547;50.774;12.918;2023-12-14T19:02:29;2.30;99.90
7014;DHT22;3547;50.774;12.918;2023-12-14T19:04:55;2.40;99.90
7014;DHT22;3547;50.774;12.918;2023-12-14T19:07:22;2.40;99.90
7014;DHT22;3547;50.774;12.918;2023-12-14T19:15:09;2.50;99.90
7014;DHT22;3547;50.774;12.918;2023-12-14T19:17:41;2.50;99.90
7014;DHT22;3547;50.774;12.918;2023-12-14T19:20:09;2.40;99.90
7014;DHT22;3547;50.774;12.918;2023-12-14T19:22:35;2.30;99.90
7014;DHT22;3547;50.774;12.918;2023-12-14T19:25:06;2.30;99.90
7014;DHT22;3547;50.774;12.918;2023-12-14T19:27:35;2.40;99.90
7014;DHT22;3547;50.774;12.918;2023-12-14T19:30:03;2.40;99.90
7014;DHT22;3547;50.774;12.918;2023-12-14T19:32:36;2.40;99.90
7014;DHT22;3547;50.774;12.918;2023-12-14T19:35:03;2.40;99.90
7014;DHT22;3547;50.774;12.918;2023-12-14T19:37:31;2.50;99.90
7014;DHT22;3547;50.774;12.918;2023-12-14T19:39:58;2.60;99.90
7014;DHT22;3547;50.774;12.918;2023-12-14T19:42:24;2.60;99.90
7014;DHT22;3547;50.774;12.918;2023-12-14T19:44:50;2.70;99.90
7014;DHT22;3547;50.774;12.918;2023-12-14T19:47:16;2.70;99.90
7014;DHT22;3547;50.774;12.918;2023-12-14T19:49:43;2.70;99.90
